AirNav   Everest Fuels
 
 1434 users online  

75FD FP & L Nuclear Power Plant Heliport
Fort Pierce, Florida, USA

GOING TO FORT PIERCE?


FAA INFORMATION EFFECTIVE 02 JANUARY 2020

Location

FAA Identifier: 75FD
Lat/Long: 27-21-02.2800N 080-14-41.2500W
27-21.038000N 080-14.687500W
27.3506333,-80.2447917
(estimated)
Elevation: 17 ft. / 5 m (estimated)
Variation: 04W (1990)
From city: 6 miles SE of FORT PIERCE, FL
Time zone: UTC -5 (UTC -4 during Daylight Saving Time)
Zip code: 34957

Heliport Operations

Heliport use: Private use. Permission required prior to landing
Activation date: 03/1993
Control tower: no
ARTCC: MIAMI CENTER
FSS: SAINT PETERSBURG FLIGHT SERVICE STATION
Attendance: CONTINUOUS
Segmented circle: no

Heliport Communications

WX AWOS-3 at SUA (10 nm S): PHONE 772-692-7399
WX ASOS at FPR (11 nm NW): PHONE 772-489-4281

Nearby radio navigation aids

VOR radial/distance  VOR name  Freq  Var
TRVr153/23.6TREASURE VORTAC117.3007W

 
NDB name  Hdg/Dist  Freq  Var  ID
FORT PIERCE147/10.727507WFPR ..-. .--. .-.
UNITED015/26.940505WUTX ..- - -..-

Heliport Services

Runway Information

Helipad H1

Dimensions: 60 x 60 ft. / 18 x 18 m
Surface: concrete
Latitude: 27-21.038000N
Longitude: 080-14.687500W
Elevation: 17.0 ft.
Traffic pattern: leftleft

Heliport Ownership and Management from official FAA records

Ownership: Privately-owned
Owner: FLORIDA POWER & LIGHT CO
P.O. BOX 128
FT. PIERCE, FL 33414
Phone 772-467-7453
Manager: VINCE MUNNE
P.O. BOX 1691
JENSEN BEACH, FL 34958
Phone 772-263-2847

Additional Remarks

A52-H1 50 FT PLINES 1500 FT SE; 65 FT TREES 13500 FT SE; 25 FT POLE 525 FT NW; 350 FT BLDG 1500 FT W; 65 FT TREES 1500 FT E; & 12 FT WINDSOCK 20 FT SE.
FOR CD CTC PALM BEACH APCH AT 561-275-1430

Instrument Procedures

There are no published instrument procedures at 75FD.

Some nearby airports with instrument procedures:

KSUA - Witham Field Airport (10 nm S)
KFPR - Treasure Coast International Airport (11 nm NW)
KVRB - Vero Beach Regional Airport (20 nm NW)
06FA - William P Gwinn Airport (27 nm S)
F45 - North Palm Beach County General Aviation Airport (30 nm S)
 
Loc | Ops | Rwys | IFR | FBO | Links
Com | Nav | Svcs | Stats | Notes


 
Area around 75FD (FP & L Nuclear Power Plant Heliport)
 
Road maps at: MapQuest Bing Google
 
Aerial photo
No photo
 
Sectional chart

 
Airport distance calculator
Flying to FP & L Nuclear Power Plant Heliport? Find the distance to fly.

From to 75FD

Sunrise and sunset
Times for 23-Jan-2020
 Local
(UTC-5)
 Zulu
(UTC)
Morning civil twilight06:4711:47
Sunrise07:1212:12
Sunset17:5422:54
Evening civil twilight18:1923:19

Current date and time
Zulu (UTC)  23-Jan-2020 23:56:43
Local (UTC-5)  23-Jan-2020 18:56:43
 
METAR
KSUA 
10nm S 
232247Z 09006KT 7SM BKN025 19/17 A3002
KFPR 
12nm NW 
232327Z 13004KT 2SM +RA BR OVC021 18/16 A3003 RMK AO2 P0018 T01830161
KVRB 
20nm NW 
232236Z 07007KT 10SM BKN034 18/17 A3003 RMK AO2 T01830167
TAF
KSUA 
10nm S 
231720Z 2318/2418 10011G16KT P6SM VCSH SCT020 BKN035 BKN060 TEMPO 2318/2320 6SM -SHRA SCT008 FM240000 12005KT P6SM VCSH SCT025 BKN050 FM241400 17008KT P6SM SCT040 BKN250
KFPR 
12nm NW 
232206Z 2322/2418 08006KT 6SM BR VCSH FEW019 BKN028 OVC035 TEMPO 2322/2324 3SM SHRA BR SCT007 BKN020 OVC030 FM240000 12005KT P6SM VCSH SCT025 BKN050 FM241400 17008KT P6SM SCT040 BKN250
NOTAMs
Click for the latest NOTAMs
NOTAMs are issued by the DoD/FAA and will open in a separate window not controlled by AirNav.

 

 
 

Would you like to see your business listed on this page?

 If your business provides an interesting product or service to pilots, flight crews, aircraft, or users of the FP & L Nuclear Power Plant Heliport, you should consider listing it here.  To start the listing process, click on the button below
 
Add a business
 

Other Pages about FP & L Nuclear Power Plant Heliport

Update a link
 
Copyright © AirNav, LLC. All rights reserved. Privacy Policy  Contact